Aérodrome :
LOGIN :

S'inscrire | Disclaimer

   EN    FR    IT 

 










Légende :    VFR   VFR Marginal   IFR   IFR Intensif   IFR Très Intensif
Visi : 
Plafond : 
>= 8 km
>= 3000ft
5 à 8 km
1000 à 3000 ft
1500m à 5 km
500 à 1000 ft
800 à 1500m
200 à 500 ft
< 800m
< 200 ft
Symboles :   Orages  Brouillard  Fortes neiges  Fortes précipitations  Vent > 20 kt
SIGMETs :   Divers  Orages  Givrage  Turbulence  Onde Orograph.  Cendres Volcan.







- Altitude de l'aérodrome : 38 ft
- Code IATA : ADX


EGQL - RAF Leuchars

DERNIER METAR :
  • 181150Z 27015KT 9999 FEW040 SCT260 06/M01 Q1016 BLU

METARs EXPIRÉS :
  • 181050Z 28015KT 9999 FEW040 SCT260 06/M01 Q1016 BLU
  • 180950Z 29010KT 9999 FEW040 06/M02 Q1017 BLU

TAF TAF EGQL
Valide du 18 à 12h jusqu'au 18 à 21h UTC


181033Z 1812/1821 28014KT 9999 FEW025
TEMPO 1812/1816 29018G28KT
Pas de NOTAMs connus pour ce terrain.
1 SIGMET publié pour la FIR Scottish (EGPX) :
 
Turbulence forte
EGPX SIGMET 03 VALID 181000/181300 EGRR
EGPX SCOTTISH FIR SEV TURB FCST NE OF LINE N6100 W00536 - N5516 E00500 SFC/FL060 STNR NC=



MET'MAP, la Météo Aéronautique d'un coup d'oeil ! - Copyright ORBIFLY Décembre 2007 - Disclaimer

ORBIFLY MET'MAP TEAM :

Programmation & Développement : Alexandra Zaïnal
Conception & Développement : Baudouin d'Aumeries
Co-Programmation & Développement : Marc-Olivier Méhu
Soutien technique & logistique : Manuel Goepfert

Contact : metmap@orbifly.com




SOURCES & CREDITS :

   NOAA